Flight Track Log - Related Links

Times and Time Zones

All times are in EST time to prevent confusion due to time zone crossing. See the CJA303 flight status page for this flight to view local times or setup timezone preferences in your user account.

Time Position Orientation Groundspeed Altitude Reporting Facility
EST Latitude Longitude Course Direction KTS MPH feet Rate Location/Type
Thu 02:21:00 AM 24.8122 -97.2176 18° North  Level FlightAware Approximate
Thu 02:22:00 AM 24.9195 -97.1796 18° North  Level FlightAware Approximate
Thu 02:23:00 AM 25.0269 -97.1416 18° North  Level FlightAware Approximate
Thu 02:23:36 AM 25.0394 -97.5989 18° North 429 494 37,000  Level Houston Center
Thu 02:24:00 AM 25.1342 -97.1034 18° North  Level FlightAware Approximate
Thu 02:24:36 AM 25.1603 -97.5878 North 432 497 37,000  Level Houston Center
Thu 02:25:00 AM 25.2415 -97.0653 18° North  Level FlightAware Approximate
Thu 02:25:36 AM 25.2817 -97.5756 North 434 499 37,000  Level Houston Center
Thu 02:26:00 AM 25.3488 -97.0270 18° North  Level FlightAware Approximate
Thu 02:26:37 AM 25.4019 -97.5644 North 434 499 37,000  Level Houston Center
Thu 02:27:00 AM 25.4560 -96.9887 18° North  Level FlightAware Approximate
Thu 02:27:37 AM 25.5425 -97.5481 North 435 501 37,000  Level Houston Center
Thu 02:28:00 AM 25.5633 -96.9503 18° North  Level FlightAware Approximate
Thu 02:28:37 AM 25.6611 -97.5308 North 433 498 37,000  Level Houston Center
Thu 02:29:37 AM 25.7703 -97.4511 33° Northeast 470 541 37,000  Level Houston Center
Thu 02:30:37 AM 25.8775 -97.3689 35° Northeast 471 542 37,000  Level Houston Center
Thu 02:31:37 AM 25.9939 -97.2767 35° Northeast 477 549 37,000  Level Houston Center
Thu 02:32:37 AM 26.1011 -97.1919 35° Northeast 475 547 37,000  Level Houston Center
Thu 02:33:37 AM 26.2097 -97.1058 35° Northeast 477 549 37,000  Level Houston Center
Thu 02:34:37 AM 26.3183 -97.0197 35° Northeast 478 550 37,000  Level Houston Center
Thu 02:35:37 AM 26.4297 -96.9317 35° Northeast 487 560 37,000  Level Houston Center
Thu 02:36:38 AM 26.5400 -96.8436 36° Northeast 487 560 37,000  Level Houston Center
Thu 02:37:38 AM 26.6489 -96.7575 35° Northeast 488 562 37,000  Level Houston Center
Thu 02:38:38 AM 26.7606 -96.6683 35° Northeast 489 563 37,000  Level Houston Center
Thu 02:39:38 AM 26.8739 -96.5767 36° Northeast 489 563 37,000  Level Houston Center
Thu 02:40:38 AM 26.9767 -96.4944 35° Northeast 489 563 37,000  Level Houston Center
Thu 02:41:38 AM 27.0881 -96.4039 36° Northeast 486 559 37,000  Level Houston Center
Thu 02:42:38 AM 27.1986 -96.3144 36° Northeast 483 556 37,000  Level Houston Center
Thu 02:43:38 AM 27.3086 -96.2267 35° Northeast 479 551 37,000  Level Houston Center
Thu 02:44:38 AM 27.4156 -96.1378 36° Northeast 478 550 37,000  Level Houston Center
Thu 02:45:39 AM 27.5189 -96.0553 35° Northeast 480 552 37,000  Level Houston Center
Thu 02:46:39 AM 27.6311 -95.9644 36° Northeast 484 557 37,000  Level Houston Center
Thu 02:47:39 AM 27.7372 -95.8761 36° Northeast 487 560 37,000  Level Houston Center
Thu 02:48:39 AM 27.8411 -95.7914 36° Northeast 497 572 37,000  Level Houston Center
Thu 02:49:39 AM 27.9525 -95.7000 36° Northeast 497 572 37,000  Level Houston Center
Thu 02:50:39 AM 28.0686 -95.6042 36° Northeast 498 573 37,000  Level Houston Center
Thu 02:51:39 AM 28.1808 -95.5094 37° Northeast 502 578 37,000  Level Houston Center
Thu 02:52:39 AM 28.2922 -95.4178 36° Northeast 501 577 37,000  Level Houston Center
Thu 02:53:39 AM 28.4042 -95.3269 36° Northeast 497 572 37,000  Level Houston Center
Thu 02:54:40 AM 28.5150 -95.2342 36° Northeast 497 572 37,000  Level Houston Center
Thu 02:55:40 AM 28.6275 -95.1394 36° Northeast 499 574 37,000  Level Houston Center
Thu 02:56:40 AM 28.7397 -95.0453 36° Northeast 503 579 37,000  Level Houston Center
Thu 02:57:40 AM 28.8506 -94.9517 36° Northeast 499 574 37,000  Level Houston Center
Thu 02:58:40 AM 28.9597 -94.8600 36° Northeast 493 567 37,000  Level Houston Center
Thu 02:59:40 AM 29.0675 -94.7697 36° Northeast 486 559 37,000  Level Houston Center
Thu 03:00:41 AM 29.1753 -94.6775 37° Northeast 486 559 37,000  Level Houston Center
Thu 03:01:41 AM 29.2831 -94.5867 36° Northeast 486 559 37,000  Level Houston Center
Thu 03:02:41 AM 29.3911 -94.4953 36° Northeast 486 559 37,000  Level Houston Center
Thu 03:03:41 AM 29.5203 -94.3833 37° Northeast 486 559 37,000  Level Houston Center
Thu 03:04:41 AM 29.6286 -94.2917 36° Northeast 486 559 37,000  Level Houston Center
Thu 03:05:41 AM 29.7375 -94.1994 36° Northeast 486 559 37,000  Level Houston Center
Thu 03:06:41 AM 29.8478 -94.1036 37° Northeast 486 559 37,000  Level Houston Center
Thu 03:07:42 AM 29.9561 -94.0103 37° Northeast 486 559 37,000  Level Houston Center
Thu 03:08:42 AM 30.0636 -93.9183 37° Northeast 485 558 37,000  Level Houston Center
Thu 03:09:42 AM 30.1711 -93.8233 37° Northeast 483 556 37,000  Level Houston Center
Thu 03:10:42 AM 30.2572 -93.7483 37° Northeast 483 556 37,000  Level Houston Center
Thu 03:11:42 AM 30.3661 -93.6525 37° Northeast 484 557 37,000  Level Houston Center
Thu 03:12:42 AM 30.4781 -93.5553 37° Northeast 483 556 37,000  Level Houston Center
Thu 03:13:42 AM 30.5861 -93.4594 37° Northeast 483 556 37,000  Level Houston Center
Thu 03:14:43 AM 30.6925 -93.3653 37° Northeast 483 556 37,000  Level Houston Center
Thu 03:15:43 AM 30.7994 -93.2703 37° Northeast 482 555 37,000  Level Houston Center
Thu 03:16:43 AM 30.9086 -93.1742 37° Northeast 486 559 37,000  Level Houston Center
Thu 03:17:43 AM 31.0172 -93.0778 37° Northeast 489 563 37,000  Level Houston Center
Thu 03:18:43 AM 31.1256 -92.9819 37° Northeast 489 563 37,000  Level Houston Center
Thu 03:19:43 AM 31.2344 -92.8858 37° Northeast 489 563 37,000  Level Houston Center
Thu 03:20:43 AM 31.3400 -92.7897 38° Northeast 484 557 37,000  Level Houston Center
Thu 03:21:44 AM 31.4494 -92.6911 38° Northeast 490 564 37,000  Level Houston Center
Thu 03:22:44 AM 31.5581 -92.5931 38° Northeast 495 570 37,000  Level Houston Center
Thu 03:23:44 AM 31.6656 -92.4953 38° Northeast 492 566 37,000  Level Houston Center
Thu 03:24:44 AM 31.7736 -92.3981 37° Northeast 491 565 37,000  Level Houston Center
Thu 03:25:44 AM 31.8808 -92.3003 38° Northeast 490 564 37,000  Level Houston Center
Thu 03:26:44 AM 31.9886 -92.2028 37° Northeast 490 564 37,000  Level Houston Center
Thu 03:27:45 AM 32.0972 -92.1042 38° Northeast 490 564 37,000  Level Houston Center
Thu 03:28:45 AM 32.2100 -91.9986 38° Northeast 492 566 37,000  Level Houston Center
Thu 03:29:45 AM 32.3181 -91.8994 38° Northeast 492 566 37,000  Level Houston Center
Thu 03:31:03 AM 32.4731 -91.7578 38° Northeast 497 572 37,000  Level Fort Worth Center
Thu 03:32:03 AM 32.5811 -91.6564 38° Northeast 497 572 37,000  Level Fort Worth Center
Thu 03:32:44 AM 32.6564 -91.5867 38° Northeast 499 574 37,000  Level Memphis Center
Thu 03:33:45 AM 32.7664 -91.4850 38° Northeast 500 575 37,000  Level Memphis Center
Thu 03:34:45 AM 32.8761 -91.3822 38° Northeast 501 577 37,000  Level Memphis Center
Thu 03:35:45 AM 32.9844 -91.2797 38° Northeast 501 577 37,000  Level Memphis Center
Thu 03:36:45 AM 33.0936 -91.1767 38° Northeast 501 577 37,000  Level Memphis Center
Thu 03:37:45 AM 33.2039 -91.0739 38° Northeast 501 577 37,000  Level Memphis Center
Thu 03:38:45 AM 33.3136 -90.9686 39° Northeast 502 578 37,000  Level Memphis Center
Thu 03:39:46 AM 33.4244 -90.8639 38° Northeast 506 582 37,000  Level Memphis Center
Thu 03:40:46 AM 33.5353 -90.7583 38° Northeast 506 582 37,000  Level Memphis Center
Thu 03:41:46 AM 33.6467 -90.6514 39° Northeast 507 583 37,000  Level Memphis Center
Thu 03:42:46 AM 33.7583 -90.5444 39° Northeast 509 586 37,000  Level Memphis Center
Thu 03:43:46 AM 33.8694 -90.4375 39° Northeast 511 588 37,000  Level Memphis Center
Thu 03:44:47 AM 33.9800 -90.3289 39° Northeast 511 588 37,000  Level Memphis Center
Thu 03:45:47 AM 34.0908 -90.2211 39° Northeast 511 588 37,000  Level Memphis Center
Thu 03:46:47 AM 34.2006 -90.1142 39° Northeast 511 588 37,000  Level Memphis Center
Thu 03:47:47 AM 34.3106 -90.0078 39° Northeast 511 588 37,000  Level Memphis Center
Thu 03:48:47 AM 34.4181 -89.9025 39° Northeast 504 580 37,000  Level Memphis Center
Thu 03:49:48 AM 34.5267 -89.7964 39° Northeast 504 580 37,000  Level Memphis Center
Thu 03:50:48 AM 34.6300 -89.6917 40° Northeast 503 579 37,000  Level Memphis Center
Thu 03:51:48 AM 34.7347 -89.5872 39° Northeast 495 570 37,000  Level Memphis Center
Thu 03:52:48 AM 34.8406 -89.4833 39° Northeast 492 566 37,000  Level Memphis Center
Thu 03:53:48 AM 34.9461 -89.3775 39° Northeast 492 566 37,000  Level Memphis Center
Thu 03:54:49 AM 35.0531 -89.2700 39° Northeast 493 567 37,000  Level Memphis Center
Thu 03:55:49 AM 35.1572 -89.1642 40° Northeast 493 567 37,000  Level Memphis Center
Thu 03:56:49 AM 35.2622 -89.0592 39° Northeast 492 566 37,000  Level Memphis Center
Thu 03:57:49 AM 35.3689 -88.9522 39° Northeast 492 566 37,000  Level Memphis Center
Thu 03:58:49 AM 35.4758 -88.8442 39° Northeast 495 570 37,000  Level Memphis Center
Thu 03:59:50 AM 35.5828 -88.7328 40° Northeast 499 574 37,000  Level Memphis Center
Thu 04:00:50 AM 35.6883 -88.6247 40° Northeast 500 575 37,000  Level Memphis Center
Thu 04:01:50 AM 35.7947 -88.5169 39° Northeast 499 574 37,000  Level Memphis Center
Thu 04:02:50 AM 35.8997 -88.4075 40° Northeast 498 573 37,000  Level Memphis Center
Thu 04:03:51 AM 36.0058 -88.3006 39° Northeast 498 573 37,000  Level Memphis Center
Thu 04:04:51 AM 36.1100 -88.1917 40° Northeast 497 572 37,000  Level Memphis Center
Thu 04:05:51 AM 36.2206 -88.0761 40° Northeast 496 571 37,000  Level Memphis Center
Thu 04:06:51 AM 36.3278 -87.9658 40° Northeast 496 571 37,000  Level Memphis Center
Thu 04:07:51 AM 36.4344 -87.8542 40° Northeast 496 571 37,000  Level Memphis Center
Thu 04:08:52 AM 36.5408 -87.7403 41° Northeast 496 571 37,000  Level Memphis Center
Thu 04:09:52 AM 36.6508 -87.6256 40° Northeast 499 574 37,000  Level Memphis Center
Thu 04:10:52 AM 36.7592 -87.5103 40° Northeast 500 575 37,000  Level Memphis Center
Thu 04:11:52 AM 36.8681 -87.3944 40° Northeast 505 581 37,000  Level Memphis Center
Thu 04:12:53 AM 36.9761 -87.2769 41° Northeast 506 582 37,000  Level Memphis Center
Thu 04:13:53 AM 37.0856 -87.1603 40° Northeast 506 582 37,000  Level Memphis Center
Thu 04:14:53 AM 37.1931 -87.0428 41° Northeast 507 583 37,000  Level Memphis Center
Thu 04:15:56 AM 37.3006 -86.9281 40° Northeast 507 583 37,000  Level Indianapolis Center
Thu 04:16:56 AM 37.4078 -86.8117 41° Northeast 506 582 37,000  Level Indianapolis Center
Thu 04:17:57 AM 37.5144 -86.6944 41° Northeast 505 581 37,000  Level Indianapolis Center
Thu 04:18:57 AM 37.6183 -86.5806 41° Northeast 505 581 37,000  Level Indianapolis Center
Thu 04:19:57 AM 37.7286 -86.4617 40° Northeast 505 581 37,000  Level Indianapolis Center
Thu 04:20:58 AM 37.8311 -86.3478 41° Northeast 505 581 37,000  Level Indianapolis Center
Thu 04:21:58 AM 37.9378 -86.2306 41° Northeast 506 582 37,000  Level Indianapolis Center
Thu 04:22:59 AM 38.0444 -86.1111 41° Northeast 506 582 37,000  Level Indianapolis Center
Thu 04:23:59 AM 38.1506 -85.9928 41° Northeast 507 583 37,000  Level Indianapolis Center
Thu 04:24:59 AM 38.2572 -85.8736 41° Northeast 508 585 37,000  Level Indianapolis Center
Thu 04:26:00 AM 38.3636 -85.7539 41° Northeast 508 585 37,000  Level Indianapolis Center
Thu 04:27:00 AM 38.4700 -85.6333 42° Northeast 508 585 37,000  Level Indianapolis Center
Thu 04:28:01 AM 38.5794 -85.5144 40° Northeast 509 586 37,000  Level Indianapolis Center
Thu 04:29:01 AM 38.6803 -85.3936 43° Northeast 509 586 37,000  Level Indianapolis Center
Thu 04:30:02 AM 38.7842 -85.2739 42° Northeast 505 581 37,000  Level Indianapolis Center
Thu 04:31:02 AM 38.8889 -85.1536 42° Northeast 506 582 37,000  Level Indianapolis Center
Thu 04:32:02 AM 38.9928 -85.0339 42° Northeast 506 582 37,000  Level Indianapolis Center
Thu 04:33:03 AM 39.0975 -84.9122 42° Northeast 506 582 37,000  Level Indianapolis Center
Thu 04:34:03 AM 39.2086 -84.7822 42° Northeast 506 582 37,000  Level Indianapolis Center
Thu 04:35:04 AM 39.3142 -84.6608 42° Northeast 506 582 37,000  Level Indianapolis Center
Thu 04:36:04 AM 39.4175 -84.5375 43° Northeast 506 582 37,000  Level Indianapolis Center
Thu 04:37:05 AM 39.5317 -84.4308 36° Northeast 505 581 37,000  Level Indianapolis Center
Thu 04:38:05 AM 39.6478 -84.3297 34° Northeast 504 580 37,000  Level Indianapolis Center
Thu 04:39:06 AM 39.7642 -84.2267 34° Northeast 504 580 37,000  Level Indianapolis Center
Thu 04:40:06 AM 39.8822 -84.1225 34° Northeast 504 580 37,000  Level Indianapolis Center
Thu 04:41:07 AM 39.9997 -84.0189 34° Northeast 505 581 37,000  Level Indianapolis Center
Thu 04:42:07 AM 40.1178 -83.9128 34° Northeast 506 582 37,000  Level Indianapolis Center
Thu 04:43:08 AM 40.2361 -83.8067 34° Northeast 508 585 37,000  Level Indianapolis Center
Thu 04:44:08 AM 40.3536 -83.7008 34° Northeast 509 586 37,000  Level Indianapolis Center
Thu 04:45:09 AM 40.4706 -83.5936 35° Northeast 509 586 37,000  Level Indianapolis Center
Thu 04:46:09 AM 40.5872 -83.4869 35° Northeast 509 586 37,000  Level Indianapolis Center
Thu 04:47:10 AM 40.7053 -83.3794 35° Northeast 511 588 37,000  Level Indianapolis Center
Thu 04:48:10 AM 40.8214 -83.2736 35° Northeast 511 588 37,000  Level Indianapolis Center
Thu 04:49:11 AM 40.9392 -83.1658 35° Northeast 511 588 37,000  Level Indianapolis Center
Thu 04:50:11 AM 41.0536 -83.0589 35° Northeast 506 582 37,000  Level Indianapolis Center
Thu 04:51:12 AM 41.1689 -82.9522 35° Northeast 504 580 37,000  Level Indianapolis Center
Thu 04:52:12 AM 41.2839 -82.8447 35° Northeast 502 578 37,000  Level Indianapolis Center
Thu 04:53:13 AM 41.3972 -82.7381 35° Northeast 497 572 37,000  Level Indianapolis Center
Thu 04:54:13 AM 41.5114 -82.6311 35° Northeast 496 571 37,000 -321 Level Indianapolis Center
Thu 04:55:24 AM 41.6450 -82.5064 35° Northeast 496 571 36,300 -733 Descending Cleveland Center
Thu 04:56:24 AM 41.7594 -82.3969 35° Northeast 500 575 35,400 -942 Descending Cleveland Center
Thu 04:57:25 AM 41.8744 -82.2883 35° Northeast 506 582 34,400 -942 Descending Cleveland Center
Thu 04:58:25 AM 41.9917 -82.1767 35° Northeast 515 593 33,500 -694 Descending Cleveland Center
Thu 04:59:26 AM 42.1144 -82.0569 36° Northeast 515 593 33,000 -248 Descending Cleveland Center
Thu 05:00:26 AM 42.2311 -81.9425 36° Northeast 514 592 33,000  Level Cleveland Center
Thu 05:01:27 AM 42.3469 -81.8319 35° Northeast 509 586 33,000  Level Cleveland Center
Thu 05:02:27 AM 42.4619 -81.7189 36° Northeast 509 586 33,000 -992 Level Cleveland Center
Thu 05:03:28 AM 42.5764 -81.6061 36° Northeast 505 581 31,000 -2,464 Descending Cleveland Center
Thu 05:05:54 AM 42.8333 -81.3167 40° Northeast 470 541 24,500 -2,534 Descending Toronto Center
Thu 05:06:54 AM 42.9333 -81.2333 31° Northeast 460 529 22,300 -2,250 Descending Toronto Center
Thu 05:07:54 AM 43.0333 -81.1167 40° Northeast 450 518 20,000 -2,150 Descending Toronto Center
Thu 05:08:54 AM 43.1000 -80.9833 56° Northeast 430 495 18,000 -1,600 Descending Toronto Center
Thu 05:09:54 AM 43.1667 -80.8667 52° Northeast 400 460 16,800 -1,800 Descending Toronto Center
Thu 05:10:54 AM 43.2500 -80.7500 46° Northeast 380 437 14,400 -2,300 Descending Toronto Center
Thu 05:11:54 AM 43.3000 -80.6333 59° Northeast 370 426 12,200 -1,950 Descending Toronto Center
Thu 05:12:54 AM 43.3500 -80.5500 50° Northeast 350 403 10,500 -1,050 Descending Toronto Center
Thu 05:13:54 AM 43.4000 -80.4333 59° Northeast 310 357 10,100 -700 Descending Toronto Center
Thu 05:14:54 AM 43.4333 -80.3500 61° Northeast 270 311 9,100 -950 Descending Toronto Center
Thu 05:15:54 AM 43.4333 -80.2500 90° East 270 311 8,200 -900 Descending Toronto Center
Thu 05:16:54 AM 43.4167 -80.1333 101° East 270 311 7,300 -750 Descending Toronto Center
Thu 05:17:54 AM 43.4167 -80.0667 90° East 240 276 6,700 -650 Descending Toronto Center
Thu 05:18:54 AM 43.4333 -79.9833 75° East 210 242 6,000 -500 Descending Toronto Center
Thu 05:19:54 AM 43.4667 -79.9333 47° Northeast 210 242 5,700 -350 Descending Toronto Center
Thu 05:20:54 AM 43.5000 -79.8833 47° Northeast 190 219 5,300 -550 Descending Toronto Center
Thu 05:21:54 AM 43.5333 -79.8333 47° Northeast 160 184 4,600 -750 Descending Toronto Center
Thu 05:22:54 AM 43.5667 -79.8000 36° Northeast 140 161 3,800 -850 Descending Toronto Center
Thu 05:23:54 AM 43.5833 -79.7500 65° Northeast 140 161 2,900 -850 Descending Toronto Center
Thu 05:24:54 AM 43.6167 -79.7333 20° North 140 161 2,100 -800 Descending Toronto Center
Thu 05:25:54 AM 43.6500 -79.6833 47° Northeast 140 161 1,300 -800 Descending Toronto Center

Login

Don't have an account? Register now (free) for customized features, flight alerts, and more!